Other Surface Observations
Issued by NWS Great Falls, MT

Home | Current Version | Previous Version | Text Only | Print | Product List | Glossary On
Versions: 1 2 3 4 5 6 7 8 9 10 11 12 13 14 15 16 17 18 19 20 21 22 23 24 25 26 27 28 29 30 31 32 33 34 35 36 37 38 39 40 41 42 43 44 45 46 47 48 49 50
576
SXUS55 KTFX 271159
OSOTFX
AREA AWOS OBSERVATIONS
NATIONAL WEATHER SERVICE GREAT FALLS MT
0559 AM MDT MON MAY 27 2019

METAR KPO1 271200Z AUTO 05010KT 9SM 06/03 A3008 RMK POPLAR
METAR K1S3 271200Z AUTO 03011G16KT 4SM 11/11 A2995 RMK FORSYTH
METAR KS71 271200Z AUTO 08006KT 7SM 07/06 A3009 RMK CHINOOK
METAR K79S 271200Z AUTO 17004KT 09/07 A3004 RMK FORT BENTON
METAR K38S 271200Z AUTO 34004KT 10SM 08/08 A2998 RMK DEER LODGE



USA.gov is the U.S. government's official web portal to all federal, state and local government web resources and services.